Time,TemperatureF,DewpointF,PressureIn,WindDirection,WindDirectionDegrees,WindSpeedMPH,WindSpeedGustMPH,Humidity,HourlyPrecipIn,Conditions,Clouds,dailyrainin,SoftwareType,DateUTC
2013-03-20 05:20:00,8.0,-8.0,-100.00,WNW,300,11.0,17.0,49,-99.99,,,-99.99,,2013-03-20 10:20:00,
2013-03-20 05:43:00,8.0,-8.0,-100.00,WNW,300,11.0,17.0,49,-99.99,,,-99.99,,2013-03-20 10:43:00,
2013-03-20 05:53:00,8.0,-8.0,-100.00,WNW,300,11.0,17.0,49,-99.99,,,-99.99,,2013-03-20 10:53:00,
2013-03-20 06:03:00,8.0,-8.0,-100.00,WNW,300,11.0,17.0,49,-99.99,,,-99.99,,2013-03-20 11:03:00,
2013-03-20 06:12:00,8.0,-8.0,-100.00,WNW,300,11.0,17.0,49,-99.99,,,-99.99,,2013-03-20 11:12:00,
2013-03-20 08:22:00,6.0,-8.0,-100.00,WNW,290,11.0,19.0,51,-99.99,,,-99.99,,2013-03-20 13:22:00,
2013-03-20 08:43:00,6.0,-8.0,-100.00,WNW,290,11.0,19.0,51,-99.99,,,-99.99,,2013-03-20 13:43:00,
2013-03-20 08:53:00,6.0,-8.0,-100.00,WNW,290,11.0,19.0,51,-99.99,,,-99.99,,2013-03-20 13:53:00,
2013-03-20 09:03:00,6.0,-8.0,-100.00,WNW,290,11.0,19.0,51,-99.99,,,-99.99,,2013-03-20 14:03:00,
2013-03-20 09:12:00,6.0,-8.0,-100.00,WNW,290,11.0,19.0,51,-99.99,,,-99.99,,2013-03-20 14:12:00,
2013-03-20 09:22:00,8.0,-7.0,-100.00,NW,310,12.0,26.0,50,-99.99,,,-99.99,,2013-03-20 14:22:00,
2013-03-20 09:43:00,8.0,-7.0,-100.00,NW,310,12.0,26.0,50,-99.99,,,-99.99,,2013-03-20 14:43:00,
2013-03-20 09:53:00,8.0,-7.0,-100.00,NW,310,12.0,26.0,50,-99.99,,,-99.99,,2013-03-20 14:53:00,
2013-03-20 10:02:00,8.0,-7.0,-100.00,NW,310,12.0,26.0,50,-99.99,,,-99.99,,2013-03-20 15:02:00,
2013-03-20 10:12:00,8.0,-7.0,-100.00,NW,310,12.0,26.0,50,-99.99,,,-99.99,,2013-03-20 15:12:00,
2013-03-20 10:53:00,11.0,-6.0,-100.00,NW,310,12.0,21.0,47,-99.99,,,-99.99,,2013-03-20 15:53:00,
2013-03-20 11:03:00,11.0,-6.0,-100.00,NW,310,12.0,21.0,47,-99.99,,,-99.99,,2013-03-20 16:03:00,
2013-03-20 11:12:00,11.0,-6.0,-100.00,NW,310,12.0,21.0,47,-99.99,,,-99.99,,2013-03-20 16:12:00,
2013-03-20 11:22:00,15.0,-3.0,-100.00,West,265,9.0,18.0,44,-99.99,,,-99.99,,2013-03-20 16:22:00,
2013-03-20 11:23:00,11.0,-6.0,-100.00,NW,310,12.0,21.0,47,-99.99,,,-99.99,,2013-03-20 16:23:00,
2013-03-20 11:43:00,15.0,-3.0,-100.00,West,265,9.0,18.0,44,-99.99,,,-99.99,,2013-03-20 16:43:00,
2013-03-20 11:53:00,15.0,-3.0,-100.00,West,265,9.0,18.0,44,-99.99,,,-99.99,,2013-03-20 16:53:00,
2013-03-20 12:03:00,15.0,-3.0,-100.00,West,265,9.0,18.0,44,-99.99,,,-99.99,,2013-03-20 17:03:00,
2013-03-20 12:12:00,15.0,-3.0,-100.00,West,265,9.0,18.0,44,-99.99,,,-99.99,,2013-03-20 17:12:00,
2013-03-20 12:22:00,16.0,-3.0,-100.00,NNW,330,14.0,26.0,42,-99.99,,,-99.99,,2013-03-20 17:22:00,
2013-03-20 12:42:00,16.0,-3.0,-100.00,NNW,330,14.0,26.0,42,-99.99,,,-99.99,,2013-03-20 17:42:00,
2013-03-20 12:53:00,16.0,-3.0,-100.00,NNW,330,14.0,26.0,42,-99.99,,,-99.99,,2013-03-20 17:53:00,
2013-03-20 13:02:00,16.0,-3.0,-100.00,NNW,330,14.0,26.0,42,-99.99,,,-99.99,,2013-03-20 18:02:00,
2013-03-20 13:12:00,16.0,-3.0,-100.00,NNW,330,14.0,26.0,42,-99.99,,,-99.99,,2013-03-20 18:12:00,
2013-03-20 13:34:00,17.0,-3.0,-100.00,NW,315,12.0,20.0,41,-99.99,,,-99.99,,2013-03-20 18:34:00,
2013-03-20 13:43:00,17.0,-3.0,-100.00,NW,315,12.0,20.0,41,-99.99,,,-99.99,,2013-03-20 18:43:00,
2013-03-20 13:53:00,17.0,-3.0,-100.00,NW,315,12.0,20.0,41,-99.99,,,-99.99,,2013-03-20 18:53:00,
2013-03-20 14:02:00,17.0,-3.0,-100.00,NW,315,12.0,20.0,41,-99.99,,,-99.99,,2013-03-20 19:02:00,
2013-03-20 14:12:00,17.0,-3.0,-100.00,NW,315,12.0,20.0,41,-99.99,,,-99.99,,2013-03-20 19:12:00,
2013-03-20 15:12:00,20.0,-3.0,-100.00,NW,325,9.0,19.0,37,-99.99,,,-99.99,,2013-03-20 20:12:00,
2013-03-20 15:32:00,20.0,-3.0,-100.00,NW,325,9.0,19.0,37,-99.99,,,-99.99,,2013-03-20 20:32:00,
2013-03-20 15:42:00,20.0,-3.0,-100.00,NW,325,9.0,19.0,37,-99.99,,,-99.99,,2013-03-20 20:42:00,
2013-03-20 15:53:00,20.0,-3.0,-100.00,NW,325,9.0,19.0,37,-99.99,,,-99.99,,2013-03-20 20:53:00,
2013-03-20 16:02:00,20.0,-3.0,-100.00,NW,325,9.0,19.0,37,-99.99,,,-99.99,,2013-03-20 21:02:00,
2013-03-20 16:33:00,19.0,-2.0,-100.00,NW,305,9.0,16.0,39,-99.99,,,-99.99,,2013-03-20 21:33:00,
2013-03-20 16:42:00,19.0,-2.0,-100.00,NW,305,9.0,16.0,39,-99.99,,,-99.99,,2013-03-20 21:42:00,
2013-03-20 16:53:00,19.0,-2.0,-100.00,NW,305,9.0,16.0,39,-99.99,,,-99.99,,2013-03-20 21:53:00,
2013-03-20 17:03:00,19.0,-2.0,-100.00,NW,305,9.0,16.0,39,-99.99,,,-99.99,,2013-03-20 22:03:00,
2013-03-20 17:12:00,19.0,-2.0,-100.00,NW,305,9.0,16.0,39,-99.99,,,-99.99,,2013-03-20 22:12:00,
2013-03-20 17:33:00,18.0,-3.0,-100.00,NNW,345,5.0,15.0,40,-99.99,,,-99.99,,2013-03-20 22:33:00,
2013-03-20 17:43:00,18.0,-3.0,-100.00,NNW,345,5.0,15.0,40,-99.99,,,-99.99,,2013-03-20 22:43:00,
2013-03-20 17:53:00,18.0,-3.0,-100.00,NNW,345,5.0,15.0,40,-99.99,,,-99.99,,2013-03-20 22:53:00,
2013-03-20 18:02:00,18.0,-3.0,-100.00,NNW,345,5.0,15.0,40,-99.99,,,-99.99,,2013-03-20 23:02:00,
2013-03-20 18:12:00,18.0,-3.0,-100.00,NNW,345,5.0,15.0,40,-99.99,,,-99.99,,2013-03-20 23:12:00,
2013-03-20 18:33:00,17.0,-4.0,-100.00,NW,325,10.0,18.0,39,-99.99,,,-99.99,,2013-03-20 23:33:00,
2013-03-20 18:43:00,17.0,-4.0,-100.00,NW,325,10.0,18.0,39,-99.99,,,-99.99,,2013-03-20 23:43:00,
2013-03-20 18:53:00,17.0,-4.0,-100.00,NW,325,10.0,18.0,39,-99.99,,,-99.99,,2013-03-20 23:53:00,
2013-03-20 19:02:00,17.0,-4.0,-100.00,NW,325,10.0,18.0,39,-99.99,,,-99.99,,2013-03-21 00:02:00,
2013-03-20 19:12:00,15.0,-4.0,-100.00,WNW,295,5.0,9.0,41,-99.99,,,-99.99,,2013-03-21 00:12:00,
2013-03-20 19:33:00,15.0,-4.0,-100.00,WNW,295,5.0,9.0,41,-99.99,,,-99.99,,2013-03-21 00:33:00,
2013-03-20 19:42:00,15.0,-4.0,-100.00,WNW,295,5.0,9.0,41,-99.99,,,-99.99,,2013-03-21 00:42:00,
2013-03-20 19:52:00,15.0,-4.0,-100.00,WNW,295,5.0,9.0,41,-99.99,,,-99.99,,2013-03-21 00:52:00,
2013-03-20 20:02:00,15.0,-4.0,-100.00,WNW,295,5.0,9.0,41,-99.99,,,-99.99,,2013-03-21 01:02:00,
2013-03-20 20:33:00,13.0,-5.0,-100.00,NNW,330,3.0,9.0,44,-99.99,,,-99.99,,2013-03-21 01:33:00,
2013-03-20 20:42:00,13.0,-5.0,-100.00,NNW,330,3.0,9.0,44,-99.99,,,-99.99,,2013-03-21 01:42:00,
2013-03-20 20:53:00,13.0,-5.0,-100.00,NNW,330,3.0,9.0,44,-99.99,,,-99.99,,2013-03-21 01:53:00,
2013-03-20 21:02:00,13.0,-5.0,-100.00,NNW,330,3.0,9.0,44,-99.99,,,-99.99,,2013-03-21 02:02:00,
2013-03-20 21:12:00,13.0,-5.0,-100.00,NNW,330,3.0,9.0,44,-99.99,,,-99.99,,2013-03-21 02:12:00,
2013-03-20 21:33:00,12.0,-5.0,-100.00,WNW,300,3.0,6.0,47,-99.99,,,-99.99,,2013-03-21 02:33:00,
2013-03-20 21:42:00,12.0,-5.0,-100.00,WNW,300,3.0,6.0,47,-99.99,,,-99.99,,2013-03-21 02:42:00,
2013-03-20 21:52:00,12.0,-5.0,-100.00,WNW,300,3.0,6.0,47,-99.99,,,-99.99,,2013-03-21 02:52:00,
2013-03-20 22:02:00,12.0,-5.0,-100.00,WNW,300,3.0,6.0,47,-99.99,,,-99.99,,2013-03-21 03:02:00,
2013-03-20 22:12:00,12.0,-5.0,-100.00,WNW,300,3.0,6.0,47,-99.99,,,-99.99,,2013-03-21 03:12:00,
2013-03-20 22:33:00,9.0,-5.0,-100.00,WNW,285,2.0,6.0,51,-99.99,,,-99.99,,2013-03-21 03:33:00,
2013-03-20 22:43:00,9.0,-5.0,-100.00,WNW,285,2.0,6.0,51,-99.99,,,-99.99,,2013-03-21 03:43:00,
2013-03-20 22:53:00,9.0,-5.0,-100.00,WNW,285,2.0,6.0,51,-99.99,,,-99.99,,2013-03-21 03:53:00,
2013-03-20 23:03:00,9.0,-5.0,-100.00,WNW,285,2.0,6.0,51,-99.99,,,-99.99,,2013-03-21 04:03:00,
2013-03-20 23:12:00,4.0,-9.0,-100.00,WNW,285,1.0,2.0,55,-99.99,,,-99.99,,2013-03-21 04:12:00,
2013-03-20 23:33:00,4.0,-9.0,-100.00,WNW,285,1.0,2.0,55,-99.99,,,-99.99,,2013-03-21 04:33:00,
2013-03-20 23:43:00,4.0,-9.0,-100.00,WNW,285,1.0,2.0,55,-99.99,,,-99.99,,2013-03-21 04:43:00,
2013-03-20 23:53:00,4.0,-9.0,-100.00,WNW,285,1.0,2.0,55,-99.99,,,-99.99,,2013-03-21 04:53:00,